sensor_id;sensor_type;location;lat;lon;timestamp;P1;durP1;ratioP1;P2;durP2;ratioP2
28304;SDS011;15569;42.652;23.040;2022-10-31T00:01:23;27.42;;;18.20;;
28304;SDS011;15569;42.652;23.040;2022-10-31T00:03:50;26.17;;;17.85;;
28304;SDS011;15569;42.652;23.040;2022-10-31T00:06:16;24.67;;;16.17;;
28304;SDS011;15569;42.652;23.040;2022-10-31T00:08:45;27.25;;;15.00;;
28304;SDS011;15569;42.652;23.040;2022-10-31T00:11:11;31.15;;;17.02;;
28304;SDS011;15569;42.652;23.040;2022-10-31T00:13:37;25.25;;;13.60;;
28304;SDS011;15569;42.652;23.040;2022-10-31T00:16:03;30.60;;;14.18;;
28304;SDS011;15569;42.652;23.040;2022-10-31T00:18:29;29.17;;;14.80;;
28304;SDS011;15569;42.652;23.040;2022-10-31T00:20:58;27.73;;;13.60;;
28304;SDS011;15569;42.652;23.040;2022-10-31T00:23:25;23.05;;;15.48;;
28304;SDS011;15569;42.652;23.040;2022-10-31T00:25:50;26.98;;;14.10;;
28304;SDS011;15569;42.652;23.040;2022-10-31T00:28:15;31.13;;;16.90;;
28304;SDS011;15569;42.652;23.040;2022-10-31T00:30:41;22.30;;;14.23;;
28304;SDS011;15569;42.652;23.040;2022-10-31T00:33:06;22.13;;;14.00;;
28304;SDS011;15569;42.652;23.040;2022-10-31T00:35:31;26.23;;;15.02;;
28304;SDS011;15569;42.652;23.040;2022-10-31T00:37:57;23.95;;;13.18;;
28304;SDS011;15569;42.652;23.040;2022-10-31T00:40:22;24.27;;;14.38;;
28304;SDS011;15569;42.652;23.040;2022-10-31T00:42:48;19.88;;;10.50;;
28304;SDS011;15569;42.652;23.040;2022-10-31T00:45:13;24.13;;;12.52;;
28304;SDS011;15569;42.652;23.040;2022-10-31T00:47:38;26.00;;;13.05;;
28304;SDS011;15569;42.652;23.040;2022-10-31T00:50:04;21.50;;;12.30;;
28304;SDS011;15569;42.652;23.040;2022-10-31T00:52:30;26.25;;;13.07;;
28304;SDS011;15569;42.652;23.040;2022-10-31T00:54:56;19.63;;;11.73;;
28304;SDS011;15569;42.652;23.040;2022-10-31T00:57:21;20.48;;;14.88;;
28304;SDS011;15569;42.652;23.040;2022-10-31T00:59:47;17.55;;;12.18;;
28304;SDS011;15569;42.652;23.040;2022-10-31T01:02:12;22.20;;;13.55;;
28304;SDS011;15569;42.652;23.040;2022-10-31T01:04:38;24.80;;;11.73;;
28304;SDS011;15569;42.652;23.040;2022-10-31T01:07:03;20.17;;;11.48;;
28304;SDS011;15569;42.652;23.040;2022-10-31T01:09:29;22.80;;;11.13;;
28304;SDS011;15569;42.652;23.040;2022-10-31T01:11:54;23.58;;;13.52;;
28304;SDS011;15569;42.652;23.040;2022-10-31T01:14:19;35.17;;;11.52;;
28304;SDS011;15569;42.652;23.040;2022-10-31T01:16:45;29.98;;;14.00;;
28304;SDS011;15569;42.652;23.040;2022-10-31T01:19:10;26.50;;;14.18;;
28304;SDS011;15569;42.652;23.040;2022-10-31T01:21:35;25.70;;;13.35;;
28304;SDS011;15569;42.652;23.040;2022-10-31T01:24:01;29.52;;;12.00;;
28304;SDS011;15569;42.652;23.040;2022-10-31T01:26:30;31.17;;;15.70;;
28304;SDS011;15569;42.652;23.040;2022-10-31T01:28:58;31.42;;;13.68;;
28304;SDS011;15569;42.652;23.040;2022-10-31T01:31:29;26.25;;;12.55;;
28304;SDS011;15569;42.652;23.040;2022-10-31T01:33:56;26.95;;;12.60;;
28304;SDS011;15569;42.652;23.040;2022-10-31T01:36:23;24.88;;;13.05;;
28304;SDS011;15569;42.652;23.040;2022-10-31T01:38:57;23.13;;;11.52;;
28304;SDS011;15569;42.652;23.040;2022-10-31T01:41:28;21.98;;;10.57;;
28304;SDS011;15569;42.652;23.040;2022-10-31T01:44:02;21.75;;;11.88;;
28304;SDS011;15569;42.652;23.040;2022-10-31T01:47:07;28.40;;;12.80;;
28304;SDS011;15569;42.652;23.040;2022-10-31T01:49:52;27.17;;;11.27;;
28304;SDS011;15569;42.652;23.040;2022-10-31T01:57:30;27.25;;;10.20;;
28304;SDS011;15569;42.652;23.040;2022-10-31T01:59:58;27.40;;;11.05;;
28304;SDS011;15569;42.652;23.040;2022-10-31T02:02:27;23.52;;;12.05;;
28304;SDS011;15569;42.652;23.040;2022-10-31T02:04:55;20.67;;;9.95;;
28304;SDS011;15569;42.652;23.040;2022-10-31T02:07:25;29.55;;;11.73;;
28304;SDS011;15569;42.652;23.040;2022-10-31T02:09:54;25.50;;;12.00;;
28304;SDS011;15569;42.652;23.040;2022-10-31T02:12:21;25.45;;;12.15;;
28304;SDS011;15569;42.652;23.040;2022-10-31T02:14:47;30.80;;;11.45;;
28304;SDS011;15569;42.652;23.040;2022-10-31T02:17:13;26.55;;;9.75;;
28304;SDS011;15569;42.652;23.040;2022-10-31T02:19:56;32.38;;;11.85;;
28304;SDS011;15569;42.652;23.040;2022-10-31T02:25:36;30.45;;;9.95;;
28304;SDS011;15569;42.652;23.040;2022-10-31T02:31:30;22.20;;;8.45;;
28304;SDS011;15569;42.652;23.040;2022-10-31T02:47:22;30.70;;;8.48;;
28304;SDS011;15569;42.652;23.040;2022-10-31T02:52:29;26.20;;;10.25;;
28304;SDS011;15569;42.652;23.040;2022-10-31T02:54:56;22.02;;;11.35;;
28304;SDS011;15569;42.652;23.040;2022-10-31T02:57:25;31.98;;;12.05;;
28304;SDS011;15569;42.652;23.040;2022-10-31T02:59:55;22.65;;;9.80;;
28304;SDS011;15569;42.652;23.040;2022-10-31T03:07:41;27.42;;;10.65;;
28304;SDS011;15569;42.652;23.040;2022-10-31T03:15:31;22.10;;;8.27;;
28304;SDS011;15569;42.652;23.040;2022-10-31T03:18:08;21.08;;;10.25;;
28304;SDS011;15569;42.652;23.040;2022-10-31T03:23:37;19.17;;;9.52;;
28304;SDS011;15569;42.652;23.040;2022-10-31T03:26:05;18.73;;;8.68;;
28304;SDS011;15569;42.652;23.040;2022-10-31T03:28:37;20.80;;;8.27;;
28304;SDS011;15569;42.652;23.040;2022-10-31T03:31:08;22.38;;;7.88;;
28304;SDS011;15569;42.652;23.040;2022-10-31T03:33:35;17.52;;;8.38;;
28304;SDS011;15569;42.652;23.040;2022-10-31T03:36:03;20.30;;;9.15;;
28304;SDS011;15569;42.652;23.040;2022-10-31T03:38:31;25.25;;;9.27;;
28304;SDS011;15569;42.652;23.040;2022-10-31T03:40:58;23.27;;;8.07;;
28304;SDS011;15569;42.652;23.040;2022-10-31T03:43:28;20.40;;;9.07;;
28304;SDS011;15569;42.652;23.040;2022-10-31T03:45:57;25.58;;;11.52;;
28304;SDS011;15569;42.652;23.040;2022-10-31T03:48:23;14.48;;;8.00;;
28304;SDS011;15569;42.652;23.040;2022-10-31T03:54:01;15.90;;;7.57;;
28304;SDS011;15569;42.652;23.040;2022-10-31T04:01:34;19.85;;;7.05;;
28304;SDS011;15569;42.652;23.040;2022-10-31T04:04:03;13.05;;;7.35;;
28304;SDS011;15569;42.652;23.040;2022-10-31T04:06:30;29.58;;;11.65;;
28304;SDS011;15569;42.652;23.040;2022-10-31T04:09:00;22.08;;;9.02;;
28304;SDS011;15569;42.652;23.040;2022-10-31T04:11:30;22.73;;;10.00;;
28304;SDS011;15569;42.652;23.040;2022-10-31T04:13:58;21.60;;;10.68;;
28304;SDS011;15569;42.652;23.040;2022-10-31T04:16:25;25.48;;;8.63;;
28304;SDS011;15569;42.652;23.040;2022-10-31T04:18:51;21.30;;;9.38;;
28304;SDS011;15569;42.652;23.040;2022-10-31T04:21:17;19.52;;;8.60;;
28304;SDS011;15569;42.652;23.040;2022-10-31T04:23:42;22.58;;;8.75;;
28304;SDS011;15569;42.652;23.040;2022-10-31T04:26:10;19.15;;;7.90;;
28304;SDS011;15569;42.652;23.040;2022-10-31T04:28:37;27.15;;;9.02;;
28304;SDS011;15569;42.652;23.040;2022-10-31T04:31:02;23.95;;;9.10;;
28304;SDS011;15569;42.652;23.040;2022-10-31T04:33:27;18.20;;;8.48;;
28304;SDS011;15569;42.652;23.040;2022-10-31T04:35:53;18.13;;;8.35;;
28304;SDS011;15569;42.652;23.040;2022-10-31T04:38:18;21.48;;;8.02;;
28304;SDS011;15569;42.652;23.040;2022-10-31T04:40:44;20.33;;;8.57;;
28304;SDS011;15569;42.652;23.040;2022-10-31T04:43:10;17.73;;;7.97;;
28304;SDS011;15569;42.652;23.040;2022-10-31T04:45:36;23.50;;;9.05;;
28304;SDS011;15569;42.652;23.040;2022-10-31T04:48:02;16.55;;;6.85;;
28304;SDS011;15569;42.652;23.040;2022-10-31T04:50:29;15.45;;;8.60;;
28304;SDS011;15569;42.652;23.040;2022-10-31T04:52:54;23.65;;;8.35;;
28304;SDS011;15569;42.652;23.040;2022-10-31T04:55:20;18.85;;;9.25;;
28304;SDS011;15569;42.652;23.040;2022-10-31T04:57:48;19.13;;;9.48;;
28304;SDS011;15569;42.652;23.040;2022-10-31T05:00:15;21.38;;;8.23;;
28304;SDS011;15569;42.652;23.040;2022-10-31T05:02:46;18.95;;;8.65;;
28304;SDS011;15569;42.652;23.040;2022-10-31T05:05:22;28.70;;;8.00;;
28304;SDS011;15569;42.652;23.040;2022-10-31T05:07:50;23.08;;;9.57;;
28304;SDS011;15569;42.652;23.040;2022-10-31T05:10:17;23.40;;;7.90;;
28304;SDS011;15569;42.652;23.040;2022-10-31T05:12:45;22.30;;;8.45;;
28304;SDS011;15569;42.652;23.040;2022-10-31T05:15:14;20.25;;;7.70;;
28304;SDS011;15569;42.652;23.040;2022-10-31T05:17:41;42.70;;;16.92;;
28304;SDS011;15569;42.652;23.040;2022-10-31T05:20:07;38.90;;;17.10;;
28304;SDS011;15569;42.652;23.040;2022-10-31T05:22:33;31.35;;;10.02;;
28304;SDS011;15569;42.652;23.040;2022-10-31T05:24:58;27.83;;;9.82;;
28304;SDS011;15569;42.652;23.040;2022-10-31T05:27:23;20.52;;;9.55;;
28304;SDS011;15569;42.652;23.040;2022-10-31T05:29:49;29.23;;;10.32;;
28304;SDS011;15569;42.652;23.040;2022-10-31T05:32:14;25.02;;;10.70;;
28304;SDS011;15569;42.652;23.040;2022-10-31T05:34:40;26.23;;;11.75;;
28304;SDS011;15569;42.652;23.040;2022-10-31T05:37:05;27.60;;;11.90;;
28304;SDS011;15569;42.652;23.040;2022-10-31T05:39:31;25.45;;;10.65;;
28304;SDS011;15569;42.652;23.040;2022-10-31T05:41:56;30.27;;;9.70;;
28304;SDS011;15569;42.652;23.040;2022-10-31T05:44:21;26.45;;;10.20;;
28304;SDS011;15569;42.652;23.040;2022-10-31T05:46:47;32.53;;;12.82;;
28304;SDS011;15569;42.652;23.040;2022-10-31T05:49:12;36.15;;;14.25;;
28304;SDS011;15569;42.652;23.040;2022-10-31T05:51:38;55.83;;;17.95;;
28304;SDS011;15569;42.652;23.040;2022-10-31T05:54:03;49.20;;;17.73;;
28304;SDS011;15569;42.652;23.040;2022-10-31T05:56:29;45.83;;;12.52;;
28304;SDS011;15569;42.652;23.040;2022-10-31T05:58:54;45.50;;;14.82;;
28304;SDS011;15569;42.652;23.040;2022-10-31T06:01:20;35.38;;;13.85;;
28304;SDS011;15569;42.652;23.040;2022-10-31T06:03:45;29.27;;;11.43;;
28304;SDS011;15569;42.652;23.040;2022-10-31T06:06:10;30.20;;;12.15;;
28304;SDS011;15569;42.652;23.040;2022-10-31T06:08:36;26.40;;;11.20;;
28304;SDS011;15569;42.652;23.040;2022-10-31T06:11:01;28.83;;;10.70;;
28304;SDS011;15569;42.652;23.040;2022-10-31T06:13:27;26.52;;;10.13;;
28304;SDS011;15569;42.652;23.040;2022-10-31T06:15:52;21.67;;;9.82;;
28304;SDS011;15569;42.652;23.040;2022-10-31T06:18:17;32.20;;;10.50;;
28304;SDS011;15569;42.652;23.040;2022-10-31T06:20:43;29.35;;;10.23;;
28304;SDS011;15569;42.652;23.040;2022-10-31T06:23:08;32.35;;;9.38;;
28304;SDS011;15569;42.652;23.040;2022-10-31T06:25:34;27.55;;;10.30;;
28304;SDS011;15569;42.652;23.040;2022-10-31T06:28:00;21.25;;;9.07;;
28304;SDS011;15569;42.652;23.040;2022-10-31T06:30:25;21.15;;;9.23;;
28304;SDS011;15569;42.652;23.040;2022-10-31T06:32:51;32.90;;;11.57;;
28304;SDS011;15569;42.652;23.040;2022-10-31T06:35:16;27.83;;;11.23;;
28304;SDS011;15569;42.652;23.040;2022-10-31T06:37:42;25.27;;;11.02;;
28304;SDS011;15569;42.652;23.040;2022-10-31T06:40:08;31.98;;;11.90;;
28304;SDS011;15569;42.652;23.040;2022-10-31T06:42:33;26.60;;;10.48;;
28304;SDS011;15569;42.652;23.040;2022-10-31T06:44:59;26.63;;;8.48;;
28304;SDS011;15569;42.652;23.040;2022-10-31T06:47:24;31.85;;;10.23;;
28304;SDS011;15569;42.652;23.040;2022-10-31T06:49:50;25.30;;;9.25;;
28304;SDS011;15569;42.652;23.040;2022-10-31T06:52:15;28.10;;;9.48;;
28304;SDS011;15569;42.652;23.040;2022-10-31T06:54:41;27.98;;;9.20;;
28304;SDS011;15569;42.652;23.040;2022-10-31T06:57:06;28.05;;;9.00;;
28304;SDS011;15569;42.652;23.040;2022-10-31T06:59:31;28.40;;;10.02;;
28304;SDS011;15569;42.652;23.040;2022-10-31T07:01:57;22.58;;;9.32;;
28304;SDS011;15569;42.652;23.040;2022-10-31T07:04:23;18.70;;;8.63;;
28304;SDS011;15569;42.652;23.040;2022-10-31T07:06:52;21.02;;;7.93;;
28304;SDS011;15569;42.652;23.040;2022-10-31T07:09:18;14.45;;;7.68;;
28304;SDS011;15569;42.652;23.040;2022-10-31T07:11:43;27.05;;;9.95;;
28304;SDS011;15569;42.652;23.040;2022-10-31T07:14:08;22.60;;;8.50;;
28304;SDS011;15569;42.652;23.040;2022-10-31T07:16:34;32.20;;;13.98;;
28304;SDS011;15569;42.652;23.040;2022-10-31T07:18:59;44.58;;;21.77;;
28304;SDS011;15569;42.652;23.040;2022-10-31T07:21:24;24.65;;;12.73;;
28304;SDS011;15569;42.652;23.040;2022-10-31T07:23:50;53.22;;;27.10;;
28304;SDS011;15569;42.652;23.040;2022-10-31T07:26:15;35.95;;;20.83;;
28304;SDS011;15569;42.652;23.040;2022-10-31T07:28:41;66.65;;;32.33;;
28304;SDS011;15569;42.652;23.040;2022-10-31T07:31:06;28.73;;;16.60;;
28304;SDS011;15569;42.652;23.040;2022-10-31T07:33:31;45.45;;;28.17;;
28304;SDS011;15569;42.652;23.040;2022-10-31T07:35:57;42.97;;;15.32;;
28304;SDS011;15569;42.652;23.040;2022-10-31T07:38:22;97.10;;;50.72;;
28304;SDS011;15569;42.652;23.040;2022-10-31T07:40:51;67.43;;;35.42;;
28304;SDS011;15569;42.652;23.040;2022-10-31T07:43:19;19.42;;;9.25;;
28304;SDS011;15569;42.652;23.040;2022-10-31T07:45:51;14.15;;;6.55;;
28304;SDS011;15569;42.652;23.040;2022-10-31T07:48:17;9.15;;;6.00;;
28304;SDS011;15569;42.652;23.040;2022-10-31T07:50:43;29.35;;;22.88;;
28304;SDS011;15569;42.652;23.040;2022-10-31T07:53:11;29.92;;;17.38;;
28304;SDS011;15569;42.652;23.040;2022-10-31T07:55:37;38.58;;;22.23;;
28304;SDS011;15569;42.652;23.040;2022-10-31T08:00:36;16.15;;;10.07;;
28304;SDS011;15569;42.652;23.040;2022-10-31T08:03:04;12.60;;;7.68;;
28304;SDS011;15569;42.652;23.040;2022-10-31T08:05:33;19.50;;;12.05;;
28304;SDS011;15569;42.652;23.040;2022-10-31T08:08:00;143.63;;;72.40;;
28304;SDS011;15569;42.652;23.040;2022-10-31T08:10:26;43.30;;;34.30;;
28304;SDS011;15569;42.652;23.040;2022-10-31T08:13:26;28.63;;;17.50;;
28304;SDS011;15569;42.652;23.040;2022-10-31T08:15:44;68.65;;;38.00;;
28304;SDS011;15569;42.652;23.040;2022-10-31T08:18:15;22.40;;;12.75;;
28304;SDS011;15569;42.652;23.040;2022-10-31T08:20:41;39.03;;;29.88;;
28304;SDS011;15569;42.652;23.040;2022-10-31T08:23:08;51.90;;;26.48;;
28304;SDS011;15569;42.652;23.040;2022-10-31T08:25:35;27.73;;;21.08;;
28304;SDS011;15569;42.652;23.040;2022-10-31T08:28:00;15.65;;;8.52;;
28304;SDS011;15569;42.652;23.040;2022-10-31T08:30:27;10.43;;;5.45;;
28304;SDS011;15569;42.652;23.040;2022-10-31T08:33:05;18.75;;;8.55;;
28304;SDS011;15569;42.652;23.040;2022-10-31T08:35:35;14.35;;;9.55;;
28304;SDS011;15569;42.652;23.040;2022-10-31T08:38:01;10.60;;;4.95;;
28304;SDS011;15569;42.652;23.040;2022-10-31T08:40:27;11.35;;;5.10;;
28304;SDS011;15569;42.652;23.040;2022-10-31T08:42:57;11.60;;;5.60;;
28304;SDS011;15569;42.652;23.040;2022-10-31T08:47:49;12.20;;;5.18;;
28304;SDS011;15569;42.652;23.040;2022-10-31T08:50:15;9.75;;;5.95;;
28304;SDS011;15569;42.652;23.040;2022-10-31T08:52:40;46.10;;;30.30;;
28304;SDS011;15569;42.652;23.040;2022-10-31T08:55:06;97.20;;;46.38;;
28304;SDS011;15569;42.652;23.040;2022-10-31T08:57:32;45.83;;;33.35;;
28304;SDS011;15569;42.652;23.040;2022-10-31T08:59:57;46.33;;;24.17;;
28304;SDS011;15569;42.652;23.040;2022-10-31T09:02:22;13.95;;;6.80;;
28304;SDS011;15569;42.652;23.040;2022-10-31T09:04:48;40.35;;;20.42;;
28304;SDS011;15569;42.652;23.040;2022-10-31T09:07:13;22.02;;;11.85;;
28304;SDS011;15569;42.652;23.040;2022-10-31T09:09:39;22.10;;;10.82;;
28304;SDS011;15569;42.652;23.040;2022-10-31T09:12:04;15.18;;;10.45;;
28304;SDS011;15569;42.652;23.040;2022-10-31T09:14:30;19.67;;;9.20;;
28304;SDS011;15569;42.652;23.040;2022-10-31T09:16:55;19.65;;;11.85;;
28304;SDS011;15569;42.652;23.040;2022-10-31T09:19:20;29.25;;;14.80;;
28304;SDS011;15569;42.652;23.040;2022-10-31T09:21:46;40.33;;;29.20;;
28304;SDS011;15569;42.652;23.040;2022-10-31T09:24:11;40.75;;;22.73;;
28304;SDS011;15569;42.652;23.040;2022-10-31T09:26:36;114.82;;;58.85;;
28304;SDS011;15569;42.652;23.040;2022-10-31T09:29:02;29.10;;;20.05;;
28304;SDS011;15569;42.652;23.040;2022-10-31T09:31:27;21.75;;;15.98;;
28304;SDS011;15569;42.652;23.040;2022-10-31T09:33:53;21.92;;;13.05;;
28304;SDS011;15569;42.652;23.040;2022-10-31T09:36:19;13.75;;;9.57;;
28304;SDS011;15569;42.652;23.040;2022-10-31T09:38:44;13.90;;;10.00;;
28304;SDS011;15569;42.652;23.040;2022-10-31T09:41:21;27.13;;;16.80;;
28304;SDS011;15569;42.652;23.040;2022-10-31T09:49:29;20.80;;;12.82;;
28304;SDS011;15569;42.652;23.040;2022-10-31T09:52:00;15.10;;;5.68;;
28304;SDS011;15569;42.652;23.040;2022-10-31T09:57:22;29.55;;;13.32;;
28304;SDS011;15569;42.652;23.040;2022-10-31T09:59:52;12.27;;;7.47;;
28304;SDS011;15569;42.652;23.040;2022-10-31T10:04:56;32.15;;;22.25;;
28304;SDS011;15569;42.652;23.040;2022-10-31T10:07:33;22.52;;;13.25;;
28304;SDS011;15569;42.652;23.040;2022-10-31T10:10:13;15.15;;;5.15;;
28304;SDS011;15569;42.652;23.040;2022-10-31T10:32:20;68.50;;;31.95;;
28304;SDS011;15569;42.652;23.040;2022-10-31T10:37:56;13.10;;;7.10;;
28304;SDS011;15569;42.652;23.040;2022-10-31T10:40:26;10.95;;;6.13;;
28304;SDS011;15569;42.652;23.040;2022-10-31T10:45:39;15.10;;;7.85;;
28304;SDS011;15569;42.652;23.040;2022-10-31T10:50:54;12.88;;;6.30;;
28304;SDS011;15569;42.652;23.040;2022-10-31T10:57:12;13.50;;;6.68;;
28304;SDS011;15569;42.652;23.040;2022-10-31T10:59:27;19.27;;;8.70;;
28304;SDS011;15569;42.652;23.040;2022-10-31T11:01:54;13.65;;;5.05;;
28304;SDS011;15569;42.652;23.040;2022-10-31T11:04:31;18.58;;;8.73;;
28304;SDS011;15569;42.652;23.040;2022-10-31T11:07:08;5.68;;;4.50;;
28304;SDS011;15569;42.652;23.040;2022-10-31T11:09:35;17.23;;;7.90;;
28304;SDS011;15569;42.652;23.040;2022-10-31T11:12:09;11.73;;;5.60;;
28304;SDS011;15569;42.652;23.040;2022-10-31T11:14:54;13.73;;;6.80;;
28304;SDS011;15569;42.652;23.040;2022-10-31T11:20:30;8.65;;;5.25;;
28304;SDS011;15569;42.652;23.040;2022-10-31T11:23:01;9.43;;;6.43;;
28304;SDS011;15569;42.652;23.040;2022-10-31T11:26:00;20.00;;;7.78;;
28304;SDS011;15569;42.652;23.040;2022-10-31T11:28:31;11.02;;;4.70;;
28304;SDS011;15569;42.652;23.040;2022-10-31T11:30:59;34.10;;;17.08;;
28304;SDS011;15569;42.652;23.040;2022-10-31T11:36:24;11.43;;;6.10;;
28304;SDS011;15569;42.652;23.040;2022-10-31T11:38:51;15.68;;;6.55;;
28304;SDS011;15569;42.652;23.040;2022-10-31T11:41:18;11.68;;;5.30;;
28304;SDS011;15569;42.652;23.040;2022-10-31T11:44:10;9.60;;;6.03;;
28304;SDS011;15569;42.652;23.040;2022-10-31T11:49:10;7.13;;;4.55;;
28304;SDS011;15569;42.652;23.040;2022-10-31T11:51:40;19.65;;;10.30;;
28304;SDS011;15569;42.652;23.040;2022-10-31T11:54:05;6.63;;;4.53;;
28304;SDS011;15569;42.652;23.040;2022-10-31T11:56:43;9.70;;;4.57;;
28304;SDS011;15569;42.652;23.040;2022-10-31T11:59:15;9.68;;;5.03;;
28304;SDS011;15569;42.652;23.040;2022-10-31T12:01:50;14.70;;;7.10;;
28304;SDS011;15569;42.652;23.040;2022-10-31T12:04:17;13.63;;;4.75;;
28304;SDS011;15569;42.652;23.040;2022-10-31T12:06:43;17.85;;;6.15;;
28304;SDS011;15569;42.652;23.040;2022-10-31T12:09:21;54.22;;;25.60;;
28304;SDS011;15569;42.652;23.040;2022-10-31T12:17:16;13.30;;;5.45;;
28304;SDS011;15569;42.652;23.040;2022-10-31T12:30:18;7.45;;;3.75;;
28304;SDS011;15569;42.652;23.040;2022-10-31T12:35:50;6.30;;;3.83;;
28304;SDS011;15569;42.652;23.040;2022-10-31T12:38:42;9.45;;;3.95;;
28304;SDS011;15569;42.652;23.040;2022-10-31T12:46:23;10.65;;;4.78;;
28304;SDS011;15569;42.652;23.040;2022-10-31T12:54:22;15.90;;;4.75;;
28304;SDS011;15569;42.652;23.040;2022-10-31T12:59:55;10.90;;;4.82;;
28304;SDS011;15569;42.652;23.040;2022-10-31T13:13:32;12.30;;;4.80;;
28304;SDS011;15569;42.652;23.040;2022-10-31T13:16:03;12.15;;;4.68;;
28304;SDS011;15569;42.652;23.040;2022-10-31T13:18:37;7.28;;;4.25;;
28304;SDS011;15569;42.652;23.040;2022-10-31T13:21:08;10.68;;;5.03;;
28304;SDS011;15569;42.652;23.040;2022-10-31T13:23:38;16.05;;;6.10;;
28304;SDS011;15569;42.652;23.040;2022-10-31T13:26:20;8.95;;;4.25;;
28304;SDS011;15569;42.652;23.040;2022-10-31T13:31:40;16.10;;;7.47;;
28304;SDS011;15569;42.652;23.040;2022-10-31T13:34:09;11.18;;;4.47;;
28304;SDS011;15569;42.652;23.040;2022-10-31T13:45:54;16.25;;;7.22;;
28304;SDS011;15569;42.652;23.040;2022-10-31T13:48:39;12.05;;;6.05;;
28304;SDS011;15569;42.652;23.040;2022-10-31T13:51:08;13.57;;;5.43;;
28304;SDS011;15569;42.652;23.040;2022-10-31T13:53:45;11.93;;;5.22;;
28304;SDS011;15569;42.652;23.040;2022-10-31T13:56:47;13.97;;;4.47;;
28304;SDS011;15569;42.652;23.040;2022-10-31T14:01:50;8.05;;;5.47;;
28304;SDS011;15569;42.652;23.040;2022-10-31T14:04:22;9.05;;;4.10;;
28304;SDS011;15569;42.652;23.040;2022-10-31T14:09:39;15.80;;;6.32;;
28304;SDS011;15569;42.652;23.040;2022-10-31T14:12:22;10.10;;;4.03;;
28304;SDS011;15569;42.652;23.040;2022-10-31T14:14:49;13.75;;;7.97;;
28304;SDS011;15569;42.652;23.040;2022-10-31T14:17:21;16.60;;;6.85;;
28304;SDS011;15569;42.652;23.040;2022-10-31T14:20:19;14.38;;;6.72;;
28304;SDS011;15569;42.652;23.040;2022-10-31T14:22:44;16.40;;;8.27;;
28304;SDS011;15569;42.652;23.040;2022-10-31T14:27:57;12.63;;;5.82;;
28304;SDS011;15569;42.652;23.040;2022-10-31T14:30:25;20.30;;;7.25;;
28304;SDS011;15569;42.652;23.040;2022-10-31T14:32:53;19.70;;;6.28;;
28304;SDS011;15569;42.652;23.040;2022-10-31T14:41:15;23.15;;;5.72;;
28304;SDS011;15569;42.652;23.040;2022-10-31T14:52:26;169.65;;;74.68;;
28304;SDS011;15569;42.652;23.040;2022-10-31T14:54:53;318.77;;;131.60;;
28304;SDS011;15569;42.652;23.040;2022-10-31T14:57:30;179.77;;;65.75;;
28304;SDS011;15569;42.652;23.040;2022-10-31T15:00:06;289.92;;;106.60;;
28304;SDS011;15569;42.652;23.040;2022-10-31T15:05:29;161.70;;;63.95;;
28304;SDS011;15569;42.652;23.040;2022-10-31T15:07:56;193.90;;;74.53;;
28304;SDS011;15569;42.652;23.040;2022-10-31T15:10:24;223.38;;;77.30;;
28304;SDS011;15569;42.652;23.040;2022-10-31T15:12:51;152.10;;;51.75;;
28304;SDS011;15569;42.652;23.040;2022-10-31T15:15:21;96.50;;;39.85;;
28304;SDS011;15569;42.652;23.040;2022-10-31T15:17:57;60.13;;;27.42;;
28304;SDS011;15569;42.652;23.040;2022-10-31T15:20:25;28.35;;;15.32;;
28304;SDS011;15569;42.652;23.040;2022-10-31T15:22:53;28.63;;;10.10;;
28304;SDS011;15569;42.652;23.040;2022-10-31T15:25:22;13.63;;;6.60;;
28304;SDS011;15569;42.652;23.040;2022-10-31T15:27:50;16.40;;;7.78;;
28304;SDS011;15569;42.652;23.040;2022-10-31T15:30:20;17.75;;;9.80;;
28304;SDS011;15569;42.652;23.040;2022-10-31T15:32:46;17.27;;;7.57;;
28304;SDS011;15569;42.652;23.040;2022-10-31T15:35:20;19.67;;;7.57;;
28304;SDS011;15569;42.652;23.040;2022-10-31T15:37:46;8.85;;;5.80;;
28304;SDS011;15569;42.652;23.040;2022-10-31T15:40:14;16.80;;;10.25;;
28304;SDS011;15569;42.652;23.040;2022-10-31T15:42:40;19.92;;;8.70;;
28304;SDS011;15569;42.652;23.040;2022-10-31T15:47:38;27.02;;;8.20;;
28304;SDS011;15569;42.652;23.040;2022-10-31T15:50:23;30.85;;;15.93;;
28304;SDS011;15569;42.652;23.040;2022-10-31T15:55:26;39.42;;;17.17;;
28304;SDS011;15569;42.652;23.040;2022-10-31T15:57:56;34.10;;;15.77;;
28304;SDS011;15569;42.652;23.040;2022-10-31T16:03:30;29.42;;;14.55;;
28304;SDS011;15569;42.652;23.040;2022-10-31T16:05:53;29.15;;;14.35;;
28304;SDS011;15569;42.652;23.040;2022-10-31T16:10:56;30.65;;;18.08;;
28304;SDS011;15569;42.652;23.040;2022-10-31T16:13:32;22.38;;;11.50;;
28304;SDS011;15569;42.652;23.040;2022-10-31T16:16:00;13.77;;;7.88;;
28304;SDS011;15569;42.652;23.040;2022-10-31T16:18:27;34.75;;;17.63;;
28304;SDS011;15569;42.652;23.040;2022-10-31T16:20:59;22.27;;;16.23;;
28304;SDS011;15569;42.652;23.040;2022-10-31T16:23:25;22.00;;;17.38;;
28304;SDS011;15569;42.652;23.040;2022-10-31T16:25:52;29.75;;;18.85;;
28304;SDS011;15569;42.652;23.040;2022-10-31T16:28:22;27.00;;;16.25;;
28304;SDS011;15569;42.652;23.040;2022-10-31T16:30:53;40.40;;;23.75;;
28304;SDS011;15569;42.652;23.040;2022-10-31T16:33:21;19.60;;;13.35;;
28304;SDS011;15569;42.652;23.040;2022-10-31T16:35:47;34.22;;;22.70;;
28304;SDS011;15569;42.652;23.040;2022-10-31T16:38:13;23.42;;;13.77;;
28304;SDS011;15569;42.652;23.040;2022-10-31T16:40:38;33.95;;;18.63;;
28304;SDS011;15569;42.652;23.040;2022-10-31T16:43:04;21.83;;;12.00;;
28304;SDS011;15569;42.652;23.040;2022-10-31T16:45:31;37.78;;;23.30;;
28304;SDS011;15569;42.652;23.040;2022-10-31T16:48:04;34.22;;;16.08;;
28304;SDS011;15569;42.652;23.040;2022-10-31T16:50:32;27.92;;;15.85;;
28304;SDS011;15569;42.652;23.040;2022-10-31T16:52:57;28.27;;;17.98;;
28304;SDS011;15569;42.652;23.040;2022-10-31T16:55:23;22.40;;;13.02;;
28304;SDS011;15569;42.652;23.040;2022-10-31T16:57:50;35.78;;;14.18;;
28304;SDS011;15569;42.652;23.040;2022-10-31T17:00:23;12.80;;;7.75;;
28304;SDS011;15569;42.652;23.040;2022-10-31T17:02:51;25.95;;;14.10;;
28304;SDS011;15569;42.652;23.040;2022-10-31T17:05:18;12.50;;;7.05;;
28304;SDS011;15569;42.652;23.040;2022-10-31T17:07:45;12.15;;;9.75;;
28304;SDS011;15569;42.652;23.040;2022-10-31T17:10:11;24.05;;;12.30;;
28304;SDS011;15569;42.652;23.040;2022-10-31T17:12:39;21.60;;;15.80;;
28304;SDS011;15569;42.652;23.040;2022-10-31T17:15:18;22.63;;;11.82;;
28304;SDS011;15569;42.652;23.040;2022-10-31T17:17:45;26.38;;;17.85;;
28304;SDS011;15569;42.652;23.040;2022-10-31T17:20:15;19.65;;;11.57;;
28304;SDS011;15569;42.652;23.040;2022-10-31T17:22:41;23.15;;;11.15;;
28304;SDS011;15569;42.652;23.040;2022-10-31T17:25:08;22.00;;;12.07;;
28304;SDS011;15569;42.652;23.040;2022-10-31T17:27:37;27.15;;;14.13;;
28304;SDS011;15569;42.652;23.040;2022-10-31T17:30:03;30.35;;;19.02;;
28304;SDS011;15569;42.652;23.040;2022-10-31T17:32:29;33.00;;;15.55;;
28304;SDS011;15569;42.652;23.040;2022-10-31T17:34:54;28.17;;;14.98;;
28304;SDS011;15569;42.652;23.040;2022-10-31T17:37:19;25.08;;;11.68;;
28304;SDS011;15569;42.652;23.040;2022-10-31T17:39:45;20.40;;;12.90;;